createdAt,value
2022-10-05T00:01:27.038Z,94624.13
2022-10-05T00:06:30.349Z,94616.09
2022-10-05T00:11:32.237Z,94626.09
2022-10-05T00:16:35.082Z,94578.81
2022-10-05T00:21:38.177Z,94620.78
2022-10-05T00:26:40.331Z,94621.84
2022-10-05T00:31:42.719Z,94619.00
2022-10-05T00:36:45.505Z,94622.00
2022-10-05T00:42:34.462Z,94600.28
2022-10-05T00:48:04.391Z,94619.44
2022-10-05T00:53:24.212Z,94625.56
2022-10-05T00:58:49.265Z,94626.63
2022-10-05T01:04:00.800Z,94603.50
2022-10-05T01:09:20.715Z,94634.66
2022-10-05T01:14:31.973Z,94598.66
2022-10-05T01:19:58.934Z,94623.00
2022-10-05T01:25:18.869Z,94618.31
2022-10-05T01:30:22.344Z,94620.53
2022-10-05T01:35:39.445Z,94623.66
2022-10-05T01:40:42.462Z,94622.94
2022-10-05T01:46:21.916Z,94631.28
2022-10-05T01:51:48.900Z,94630.69
2022-10-05T01:57:08.981Z,94629.81
2022-10-05T02:02:17.206Z,94621.91
2022-10-05T02:07:24.973Z,94613.25
2022-10-05T02:12:32.451Z,94580.22
2022-10-05T02:17:40.136Z,94611.47
2022-10-05T02:23:04.366Z,94615.19
2022-10-05T02:28:17.006Z,94576.78
2022-10-05T02:33:30.853Z,94611.56
2022-10-05T02:38:56.443Z,94621.94
2022-10-05T02:44:26.799Z,94617.50
2022-10-05T02:49:43.772Z,94612.41
2022-10-05T02:55:04.219Z,94615.50
2022-10-05T03:00:10.592Z,94615.50
2022-10-05T03:05:51.486Z,94615.88
2022-10-05T03:11:03.967Z,94603.78
2022-10-05T03:16:46.729Z,94619.19
2022-10-05T03:22:02.711Z,94624.25
2022-10-05T03:27:18.967Z,94603.34
2022-10-05T03:32:37.119Z,94626.28
2022-10-05T03:37:48.133Z,94619.22
2022-10-05T03:43:24.779Z,94626.44
2022-10-05T03:48:45.170Z,94634.88
2022-10-05T03:53:55.097Z,94639.13
2022-10-05T03:59:04.376Z,94645.22
2022-10-05T04:04:16.823Z,94633.09
2022-10-05T04:09:24.785Z,94645.53
2022-10-05T04:14:32.701Z,94641.34
2022-10-05T04:19:39.631Z,94651.75
2022-10-05T04:24:54.064Z,94633.25
2022-10-05T04:30:01.974Z,94657.84
2022-10-05T04:35:14.558Z,94664.34
2022-10-05T04:40:42.789Z,94675.47
2022-10-05T04:46:01.478Z,94670.50
2022-10-05T04:51:14.260Z,94662.34
2022-10-05T04:56:20.799Z,94655.97
2022-10-05T05:01:32.424Z,94661.34
2022-10-05T05:06:51.801Z,94670.22
2022-10-05T05:12:04.190Z,94636.16
2022-10-05T05:17:13.287Z,94665.00
2022-10-05T05:22:32.032Z,94683.84
2022-10-05T05:27:42.627Z,94682.59
2022-10-05T05:33:31.400Z,94677.69
2022-10-05T05:38:47.636Z,94680.66
2022-10-05T05:43:59.005Z,94654.41
2022-10-05T05:49:16.615Z,94689.13
2022-10-05T05:54:27.583Z,94689.78
2022-10-05T05:59:49.722Z,94701.72
2022-10-05T06:04:57.375Z,94702.19
2022-10-05T06:10:16.925Z,94700.19
2022-10-05T06:15:35.080Z,94680.31
2022-10-05T06:20:42.916Z,94723.41
2022-10-05T06:26:41.565Z,94726.88
2022-10-05T06:31:49.904Z,94737.28
2022-10-05T06:36:58.798Z,94725.75
2022-10-05T06:42:40.694Z,94735.25
2022-10-05T06:48:33.818Z,94734.56
2022-10-05T06:54:15.478Z,94726.97
2022-10-05T06:59:45.792Z,94741.50
2022-10-05T07:05:19.297Z,94739.25
2022-10-05T07:10:34.037Z,94735.44
2022-10-05T07:15:45.427Z,94749.19
2022-10-05T07:20:53.649Z,94751.53
2022-10-05T07:26:07.624Z,94735.09
2022-10-05T07:31:36.840Z,94768.97
2022-10-05T07:37:12.235Z,94763.47
2022-10-05T07:42:39.956Z,94782.59
2022-10-05T07:47:53.551Z,94796.00
2022-10-05T07:52:59.552Z,94795.63
2022-10-05T07:58:13.205Z,94794.44
2022-10-05T08:03:38.897Z,94802.91
2022-10-05T08:08:59.763Z,94816.13
2022-10-05T08:14:17.521Z,94815.88
2022-10-05T08:19:35.852Z,94790.16
2022-10-05T08:24:49.870Z,94815.66
2022-10-05T08:30:10.799Z,94839.81
2022-10-05T08:35:48.802Z,94834.66
2022-10-05T08:41:19.131Z,94825.00
2022-10-05T08:46:30.406Z,94828.41
2022-10-05T08:51:35.437Z,94827.88
2022-10-05T08:56:55.462Z,94812.13
2022-10-05T09:02:10.655Z,94816.09
2022-10-05T09:07:39.421Z,94819.03
2022-10-05T09:12:59.298Z,94818.66
2022-10-05T09:18:43.672Z,94816.06
2022-10-05T09:23:50.030Z,94807.94
2022-10-05T09:28:57.819Z,94813.72
2022-10-05T09:34:39.873Z,94808.25
2022-10-05T09:40:03.698Z,94817.53
2022-10-05T09:45:44.531Z,94815.94
2022-10-05T09:50:50.238Z,94774.09
2022-10-05T09:56:09.266Z,94814.16
2022-10-05T10:01:34.302Z,94803.72
2022-10-05T10:06:59.579Z,94795.25
2022-10-05T10:12:24.706Z,94791.78
2022-10-05T10:17:44.371Z,94783.94
2022-10-05T10:23:04.386Z,94780.78
2022-10-05T10:28:25.949Z,94779.41
2022-10-05T10:33:55.545Z,94752.13
2022-10-05T10:39:19.457Z,94772.72
2022-10-05T10:44:42.130Z,94773.63
2022-10-05T10:50:01.246Z,94768.38
2022-10-05T10:55:29.209Z,94770.84
2022-10-05T11:01:05.692Z,94760.94
2022-10-05T11:06:35.470Z,94757.66
2022-10-05T11:11:57.790Z,94764.84
2022-10-05T11:17:09.256Z,94756.66
2022-10-05T11:22:44.397Z,94736.25
2022-10-05T11:28:01.568Z,94742.50
2022-10-05T11:33:25.378Z,94739.56
2022-10-05T11:39:06.983Z,94705.84
2022-10-05T11:44:27.775Z,94734.94
2022-10-05T11:49:37.474Z,94719.88
2022-10-05T11:55:11.285Z,94726.53
2022-10-05T12:00:21.593Z,94717.31
2022-10-05T12:05:41.743Z,94722.63
2022-10-05T12:11:16.369Z,94703.19
2022-10-05T12:16:22.880Z,94700.91
2022-10-05T12:21:49.705Z,94703.63
2022-10-05T12:27:19.080Z,94686.81
2022-10-05T12:32:21.920Z,94685.19
2022-10-05T12:37:43.087Z,94672.78
2022-10-05T12:42:55.239Z,94670.13
2022-10-05T12:48:19.819Z,94661.88
2022-10-05T12:53:33.965Z,94656.38
2022-10-05T12:59:04.986Z,94650.88
2022-10-05T13:04:23.078Z,94642.31
2022-10-05T13:09:42.747Z,94652.03
2022-10-05T13:15:05.982Z,94633.72
2022-10-05T13:20:35.557Z,94630.88
2022-10-05T13:26:04.242Z,94622.72
2022-10-05T13:31:30.805Z,94623.78
2022-10-05T13:36:42.591Z,94609.72
2022-10-05T13:41:55.905Z,94608.56
2022-10-05T13:47:12.675Z,94602.72
2022-10-05T13:52:31.242Z,94593.34
2022-10-05T13:57:47.296Z,94571.09
2022-10-05T14:02:52.038Z,94586.25
2022-10-05T14:08:04.317Z,94588.00
2022-10-05T14:13:29.517Z,94589.50
2022-10-05T14:18:34.379Z,94571.09
2022-10-05T14:23:36.504Z,94581.00
2022-10-05T14:28:39.734Z,94567.16
2022-10-05T14:33:42.863Z,94568.97
2022-10-05T14:38:58.058Z,94553.97
2022-10-05T14:44:05.798Z,94525.72
2022-10-05T14:49:24.707Z,94544.22
2022-10-05T14:54:44.459Z,94547.53
2022-10-05T15:00:00.540Z,94538.56
2022-10-05T15:05:15.503Z,94531.34
2022-10-05T15:10:41.278Z,94533.09
2022-10-05T15:15:57.305Z,94542.84
2022-10-05T15:21:32.229Z,94554.13
2022-10-05T15:26:40.862Z,94545.66
2022-10-05T15:32:26.498Z,94537.72
2022-10-05T15:37:43.611Z,94535.91
2022-10-05T15:42:45.807Z,94540.38
2022-10-05T15:47:53.765Z,94520.00
2022-10-05T15:53:08.950Z,94546.50
2022-10-05T15:58:32.165Z,94519.03
2022-10-05T16:03:46.312Z,94543.41
2022-10-05T16:08:50.904Z,94537.78
2022-10-05T16:14:03.598Z,94541.81
2022-10-05T16:19:30.116Z,94545.41
2022-10-05T16:25:25.163Z,94541.66
2022-10-05T16:30:45.835Z,94545.13
2022-10-05T16:35:59.853Z,94541.34
2022-10-05T16:41:17.353Z,94559.31
2022-10-05T16:46:28.330Z,94537.72
2022-10-05T16:51:42.932Z,94532.91
2022-10-05T16:56:58.052Z,94565.88
2022-10-05T17:02:31.341Z,94565.22
2022-10-05T17:07:56.553Z,94539.75
2022-10-05T17:13:20.026Z,94574.84
2022-10-05T17:18:54.422Z,94574.97
2022-10-05T17:24:03.733Z,94578.91
2022-10-05T17:29:11.463Z,94594.97
2022-10-05T17:34:18.834Z,94598.53
2022-10-05T17:39:38.186Z,94591.56
2022-10-05T17:45:22.297Z,94574.94
2022-10-05T17:50:59.833Z,94606.44
2022-10-05T17:56:04.638Z,94584.75
2022-10-05T18:01:20.318Z,94611.19
2022-10-05T18:06:27.562Z,94628.31
2022-10-05T18:11:42.542Z,94636.06
2022-10-05T18:17:11.888Z,94632.19
2022-10-05T18:22:17.880Z,94634.16
2022-10-05T18:27:55.830Z,94655.50
2022-10-05T18:33:35.477Z,94665.97
2022-10-05T18:38:40.595Z,94653.16
2022-10-05T18:43:49.133Z,94658.16
2022-10-05T18:48:56.915Z,94652.63
2022-10-05T18:54:26.394Z,94670.16
2022-10-05T18:59:57.556Z,94675.16
2022-10-05T19:10:57.839Z,94678.97
2022-10-05T19:16:03.441Z,94685.16
2022-10-05T19:21:18.568Z,94692.47
2022-10-05T19:26:37.809Z,94704.06
2022-10-05T19:31:55.611Z,94677.50
2022-10-05T19:37:05.027Z,94701.16
2022-10-05T19:42:31.759Z,94722.50
2022-10-05T19:47:40.309Z,94732.94
2022-10-05T19:52:49.712Z,94722.75
2022-10-05T19:58:02.357Z,94732.09
2022-10-05T20:03:18.162Z,94736.00
2022-10-05T20:08:22.398Z,94742.50
2022-10-05T20:13:24.492Z,94749.78
2022-10-05T20:19:03.276Z,94741.31
2022-10-05T20:24:10.383Z,94695.72
2022-10-05T20:29:12.526Z,94748.16
2022-10-05T20:34:14.682Z,94717.28
2022-10-05T20:39:22.445Z,94743.28
2022-10-05T20:44:26.785Z,94757.97
2022-10-05T20:49:31.496Z,94753.53
2022-10-05T20:54:33.873Z,94768.19
2022-10-05T20:59:39.438Z,94766.63
2022-10-05T21:04:49.317Z,94766.94
2022-10-05T21:09:51.767Z,94774.66
2022-10-05T21:14:54.104Z,94761.78
2022-10-05T21:19:56.106Z,94759.31
2022-10-05T21:24:58.555Z,94770.94
2022-10-05T21:30:01.000Z,94790.28
2022-10-05T21:35:04.957Z,94786.34
2022-10-05T21:40:17.567Z,94786.38
2022-10-05T21:45:20.877Z,94796.41
2022-10-05T21:50:23.381Z,94794.34
2022-10-05T21:55:25.247Z,94825.78
2022-10-05T22:00:27.400Z,94852.28
2022-10-05T22:05:32.355Z,94826.34
2022-10-05T22:10:35.191Z,94855.47
2022-10-05T22:15:40.548Z,94877.16
2022-10-05T22:20:42.564Z,94833.56
2022-10-05T22:25:45.715Z,94871.44
2022-10-05T22:31:00.676Z,94883.59
2022-10-05T22:36:06.762Z,94873.41
2022-10-05T22:41:12.524Z,94882.09
2022-10-05T22:46:22.546Z,94875.03
2022-10-05T22:51:27.397Z,94857.38
2022-10-05T22:56:38.850Z,94881.84
2022-10-05T23:01:44.261Z,94840.31
2022-10-05T23:06:50.051Z,94885.25
2022-10-05T23:11:58.030Z,94893.31
2022-10-05T23:17:06.193Z,94886.25
2022-10-05T23:22:09.668Z,94894.63
2022-10-05T23:27:13.486Z,94898.44
2022-10-05T23:32:15.747Z,94909.66
2022-10-05T23:37:20.695Z,94917.56
2022-10-05T23:42:36.953Z,94918.13
2022-10-05T23:47:39.766Z,94923.81
2022-10-05T23:52:44.249Z,94921.75
2022-10-05T23:57:46.233Z,94915.00
